Time;durP1;ratioP1;P1;durP2;ratioP2;P2;SDS_P1;SDS_P2;PMS_P1;PMS_P2;Temp;Humidity;BMP_temperature;BMP_pressure;BME280_temperature;BME280_humidity;BME280_pressure;Samples;Min_cycle;Max_cycle;Signal;HPM_P1;HPM_P2
2021/06/10 00:00:11;;;;;;;3.75;2.60;;;;;;;;;;5030502;28;20021;-85
2021/06/10 00:02:37;;;;;;;2.95;2.50;;;;;;;;;;4993429;28;20030;-85
2021/06/10 00:05:04;;;;;;;3.30;2.45;;;;;;;;;;5019929;28;20058;-84
2021/06/10 00:07:30;;;;;;;4.30;2.40;;;;;;;;;;5028924;28;20046;-85
2021/06/10 00:09:56;;;;;;;4.35;2.30;;;;;;;;;;5011609;28;20263;-85
2021/06/10 00:12:22;;;;;;;4.22;2.50;;;;;;;;;;5023727;28;20040;-85
2021/06/10 00:14:49;;;;;;;4.20;2.33;;;;;;;;;;5022903;28;20037;-85
2021/06/10 00:17:15;;;;;;;2.55;2.35;;;;;;;;;;5003449;28;20395;-85
2021/06/10 00:19:41;;;;;;;4.78;2.38;;;;;;;;;;5022050;28;20034;-85
2021/06/10 00:22:07;;;;;;;4.07;2.45;;;;;;;;;;5021682;28;20029;-85
2021/06/10 00:24:33;;;;;;;5.70;2.63;;;;;;;;;;5022588;28;20021;-85
2021/06/10 00:26:59;;;;;;;3.88;2.75;;;;;;;;;;5018257;28;20133;-83
2021/06/10 00:29:25;;;;;;;7.32;3.00;;;;;;;;;;5003583;28;20678;-85
2021/06/10 00:31:51;;;;;;;3.58;2.70;;;;;;;;;;5032873;28;20514;-85
2021/06/10 00:34:17;;;;;;;4.45;2.75;;;;;;;;;;5038616;28;20037;-85
2021/06/10 00:36:43;;;;;;;4.40;2.80;;;;;;;;;;5034645;28;20030;-84
2021/06/10 00:39:09;;;;;;;3.83;2.50;;;;;;;;;;5038379;28;20060;-84
2021/06/10 00:41:36;;;;;;;4.78;2.92;;;;;;;;;;5015530;28;20041;-85
2021/06/10 00:44:06;;;;;;;3.63;2.50;;;;;;;;;;5034196;28;20021;-85
2021/06/10 00:46:33;;;;;;;4.90;2.92;;;;;;;;;;5030736;28;20087;-85
2021/06/10 00:48:59;;;;;;;4.50;3.05;;;;;;;;;;5026684;28;20017;-85
2021/06/10 00:51:25;;;;;;;4.25;3.10;;;;;;;;;;5042415;28;20048;-85
2021/06/10 00:53:51;;;;;;;4.55;2.90;;;;;;;;;;5021208;28;20057;-84
2021/06/10 00:56:17;;;;;;;4.15;2.90;;;;;;;;;;5038222;28;20524;-84
2021/06/10 00:58:43;;;;;;;4.15;2.83;;;;;;;;;;5021246;28;20044;-85
2021/06/10 01:01:09;;;;;;;4.50;2.45;;;;;;;;;;5043872;28;20040;-84
2021/06/10 01:03:38;;;;;;;3.25;2.80;;;;;;;;;;5025204;28;20025;-84
2021/06/10 01:06:07;;;;;;;6.05;3.15;;;;;;;;;;5033734;28;20033;-85
2021/06/10 01:08:45;;;;;;;3.88;2.53;;;;;;;;;;5032957;28;20021;-85
2021/06/10 01:11:11;;;;;;;;;;;;;;;;;;5034596;28;20036;-85
2021/06/10 01:13:44;;;;;;;5.13;3.08;;;;;;;;;;5022475;28;20286;-85
2021/06/10 01:16:12;;;;;;;3.83;2.80;;;;;;;;;;5004954;28;20029;-84
2021/06/10 01:18:40;;;;;;;5.63;3.30;;;;;;;;;;5042264;28;20021;-84
2021/06/10 01:21:07;;;;;;;4.88;3.50;;;;;;;;;;5037137;28;20036;-85
2021/06/10 01:23:52;;;;;;;6.20;3.20;;;;;;;;;;5021438;28;20037;-85
2021/06/10 01:26:18;;;;;;;5.20;3.35;;;;;;;;;;5042565;28;20039;-85
2021/06/10 01:28:45;;;;;;;5.20;2.97;;;;;;;;;;5012073;28;20057;-85
2021/06/10 01:31:14;;;;;;;7.90;3.10;;;;;;;;;;5022899;28;20127;-85
2021/06/10 01:33:46;;;;;;;5.60;3.15;;;;;;;;;;5036905;28;20053;-85
2021/06/10 01:36:13;;;;;;;5.57;3.45;;;;;;;;;;5023890;28;20308;-85
2021/06/10 01:38:40;;;;;;;6.17;3.40;;;;;;;;;;5038927;28;20067;-85
2021/06/10 01:41:07;;;;;;;4.63;3.40;;;;;;;;;;5042796;28;20259;-85
2021/06/10 01:43:37;;;;;;;6.40;3.60;;;;;;;;;;5026966;28;20033;-85
2021/06/10 01:46:04;;;;;;;7.28;3.30;;;;;;;;;;5034670;28;20124;-84
2021/06/10 01:48:31;;;;;;;4.13;2.97;;;;;;;;;;5021239;28;20378;-85
2021/06/10 01:50:59;;;;;;;7.18;3.95;;;;;;;;;;5036669;28;20025;-86
2021/06/10 01:53:26;;;;;;;7.13;3.83;;;;;;;;;;5028685;28;20478;-86
2021/06/10 01:55:54;;;;;;;5.80;3.53;;;;;;;;;;5036262;28;20067;-86
2021/06/10 01:58:20;;;;;;;5.65;3.08;;;;;;;;;;5035295;28;20053;-85
2021/06/10 02:00:47;;;;;;;5.32;3.03;;;;;;;;;;5029794;28;20061;-86
2021/06/10 02:03:14;;;;;;;5.22;3.20;;;;;;;;;;5036069;28;20149;-85
2021/06/10 02:05:41;;;;;;;6.65;3.88;;;;;;;;;;5039284;28;20464;-86
2021/06/10 02:08:08;;;;;;;6.95;3.50;;;;;;;;;;5029083;28;20013;-85
2021/06/10 02:10:34;;;;;;;5.45;3.80;;;;;;;;;;5035701;28;20505;-86
2021/06/10 02:13:00;;;;;;;7.28;3.50;;;;;;;;;;5039825;28;20029;-85
2021/06/10 02:15:26;;;;;;;5.40;3.30;;;;;;;;;;5040770;28;20026;-85
2021/06/10 02:17:52;;;;;;;4.35;3.50;;;;;;;;;;5032371;28;20143;-85
2021/06/10 02:20:20;;;;;;;5.38;3.63;;;;;;;;;;5037388;28;20055;-86
2021/06/10 02:22:46;;;;;;;6.60;4.50;;;;;;;;;;5035613;28;20033;-85
2021/06/10 02:25:12;;;;;;;4.68;3.78;;;;;;;;;;5038576;28;20430;-85
2021/06/10 02:27:38;;;;;;;5.35;3.50;;;;;;;;;;5026242;28;20021;-85
2021/06/10 02:30:10;;;;;;;7.18;3.63;;;;;;;;;;5043204;28;20077;-85
2021/06/10 02:32:37;;;;;;;6.18;3.70;;;;;;;;;;5019897;28;20065;-85
2021/06/10 02:35:07;;;;;;;6.60;3.70;;;;;;;;;;5017676;28;20025;-86
2021/06/10 02:37:34;;;;;;;5.22;3.97;;;;;;;;;;5040817;28;20029;-85
2021/06/10 02:40:00;;;;;;;4.43;3.72;;;;;;;;;;5036441;28;20529;-85
2021/06/10 02:42:27;;;;;;;4.55;3.58;;;;;;;;;;5035176;28;20021;-86
2021/06/10 02:44:53;;;;;;;4.75;3.70;;;;;;;;;;5035812;28;20033;-85
2021/06/10 02:47:20;;;;;;;5.75;4.10;;;;;;;;;;5038237;28;20026;-85
2021/06/10 02:49:47;;;;;;;7.35;4.40;;;;;;;;;;5022991;28;20037;-85
2021/06/10 02:52:14;;;;;;;6.43;3.90;;;;;;;;;;5029932;28;20091;-86
2021/06/10 02:54:41;;;;;;;5.88;4.07;;;;;;;;;;5042515;28;20044;-85
2021/06/10 02:57:08;;;;;;;6.45;4.30;;;;;;;;;;5034614;28;20028;-86
2021/06/10 02:59:35;;;;;;;5.57;3.70;;;;;;;;;;5033702;28;20486;-85
2021/06/10 03:02:02;;;;;;;5.05;3.58;;;;;;;;;;5035541;28;20038;-85
2021/06/10 03:04:28;;;;;;;4.22;3.53;;;;;;;;;;5035209;28;20026;-85
2021/06/10 03:06:54;;;;;;;6.32;3.80;;;;;;;;;;5034095;28;20036;-85
2021/06/10 03:09:22;;;;;;;7.45;4.18;;;;;;;;;;5031626;28;20116;-85
2021/06/10 03:11:48;;;;;;;6.38;3.47;;;;;;;;;;5037305;28;20128;-85
2021/06/10 03:14:15;;;;;;;7.85;3.63;;;;;;;;;;5037628;28;20025;-85
2021/06/10 03:16:42;;;;;;;5.17;3.67;;;;;;;;;;5010844;28;20382;-83
2021/06/10 03:19:08;;;;;;;5.15;3.78;;;;;;;;;;5033217;28;20278;-86
2021/06/10 03:21:34;;;;;;;5.88;3.70;;;;;;;;;;5030998;28;20106;-85
2021/06/10 03:24:00;;;;;;;7.65;4.28;;;;;;;;;;5001347;28;20445;-85
2021/06/10 03:26:27;;;;;;;8.52;4.68;;;;;;;;;;5025899;28;20021;-85
2021/06/10 03:28:53;;;;;;;6.63;4.13;;;;;;;;;;5003723;28;20017;-86
2021/06/10 03:31:20;;;;;;;6.03;4.38;;;;;;;;;;5029309;28;20063;-85
2021/06/10 03:33:47;;;;;;;9.18;4.68;;;;;;;;;;5009151;28;20041;-85
2021/06/10 03:36:14;;;;;;;6.32;3.92;;;;;;;;;;5023192;28;20022;-86
2021/06/10 03:38:40;;;;;;;5.85;4.22;;;;;;;;;;5001556;28;20034;-86
2021/06/10 03:41:06;;;;;;;5.78;3.80;;;;;;;;;;5028296;28;20022;-86
2021/06/10 03:43:33;;;;;;;5.60;4.30;;;;;;;;;;5024741;28;20483;-87
2021/06/10 03:45:59;;;;;;;6.30;4.22;;;;;;;;;;5003952;28;20022;-86
2021/06/10 03:48:26;;;;;;;6.13;4.45;;;;;;;;;;5014979;28;20030;-86
2021/06/10 03:50:52;;;;;;;7.97;4.10;;;;;;;;;;5020199;28;20052;-85
2021/06/10 03:53:19;;;;;;;6.20;4.50;;;;;;;;;;4997691;28;20030;-85
2021/06/10 03:55:44;;;;;;;6.55;3.95;;;;;;;;;;5003315;28;20034;-85
2021/06/10 03:58:10;;;;;;;7.43;4.85;;;;;;;;;;5012082;28;20532;-85
2021/06/10 04:00:36;;;;;;;6.05;4.53;;;;;;;;;;5015838;28;20014;-86
2021/06/10 04:03:02;;;;;;;7.93;4.75;;;;;;;;;;5024413;28;20036;-85
2021/06/10 04:05:31;;;;;;;6.47;4.40;;;;;;;;;;5023849;28;20036;-85
2021/06/10 04:07:57;;;;;;;6.03;4.35;;;;;;;;;;5012327;28;20108;-85
2021/06/10 04:10:23;;;;;;;5.65;4.20;;;;;;;;;;5011796;28;20030;-86
2021/06/10 04:12:49;;;;;;;5.07;3.92;;;;;;;;;;5016525;28;20052;-86
2021/06/10 04:15:16;;;;;;;5.05;3.88;;;;;;;;;;5020680;28;20068;-85
2021/06/10 04:17:42;;;;;;;7.43;4.10;;;;;;;;;;5017611;28;20041;-85
2021/06/10 04:20:09;;;;;;;4.82;3.78;;;;;;;;;;5005650;28;20021;-85
2021/06/10 04:22:34;;;;;;;6.22;3.70;;;;;;;;;;5015817;28;20038;-86
2021/06/10 04:25:00;;;;;;;7.90;4.30;;;;;;;;;;5020068;28;20108;-85
2021/06/10 04:27:26;;;;;;;8.85;4.75;;;;;;;;;;5020415;28;20026;-85
2021/06/10 04:29:52;;;;;;;5.10;4.10;;;;;;;;;;5020922;28;20130;-85
2021/06/10 04:32:18;;;;;;;5.60;4.05;;;;;;;;;;5002475;28;20056;-85
2021/06/10 04:34:45;;;;;;;5.10;3.80;;;;;;;;;;5025741;28;20026;-85
2021/06/10 04:37:11;;;;;;;6.53;3.90;;;;;;;;;;5034747;28;20029;-85
2021/06/10 04:39:37;;;;;;;5.78;3.78;;;;;;;;;;5013624;28;20022;-85
2021/06/10 04:42:03;;;;;;;5.53;4.38;;;;;;;;;;5022815;28;20057;-85
2021/06/10 04:44:29;;;;;;;5.90;4.10;;;;;;;;;;5006496;28;20022;-85
2021/06/10 04:46:55;;;;;;;6.78;3.97;;;;;;;;;;5034234;28;20033;-85
2021/06/10 04:49:21;;;;;;;6.70;4.10;;;;;;;;;;5025694;28;20442;-85
2021/06/10 04:51:47;;;;;;;5.60;4.00;;;;;;;;;;5027973;28;20540;-85
2021/06/10 04:54:13;;;;;;;6.00;3.70;;;;;;;;;;5019568;28;20026;-86
2021/06/10 04:56:39;;;;;;;7.30;4.10;;;;;;;;;;5024337;28;20025;-86
2021/06/10 04:59:05;;;;;;;7.03;4.25;;;;;;;;;;5027197;28;20030;-85
2021/06/10 05:01:31;;;;;;;6.43;3.83;;;;;;;;;;5027839;28;20037;-86
2021/06/10 05:03:57;;;;;;;7.13;4.32;;;;;;;;;;5024648;28;20573;-86
2021/06/10 05:06:23;;;;;;;5.53;4.07;;;;;;;;;;5024475;28;20018;-85
2021/06/10 05:08:49;;;;;;;6.25;4.05;;;;;;;;;;5041882;28;20049;-85
2021/06/10 05:11:15;;;;;;;5.47;4.00;;;;;;;;;;5026699;28;20598;-85
2021/06/10 05:13:41;;;;;;;5.38;3.90;;;;;;;;;;5013730;28;20040;-85
2021/06/10 05:16:07;;;;;;;5.07;3.40;;;;;;;;;;5020951;28;20088;-85
2021/06/10 05:18:33;;;;;;;5.25;3.65;;;;;;;;;;5021990;28;20026;-85
2021/06/10 05:20:59;;;;;;;5.80;3.75;;;;;;;;;;5020947;28;20069;-86
2021/06/10 05:23:25;;;;;;;6.20;3.70;;;;;;;;;;5023940;28;20026;-84
2021/06/10 05:25:51;;;;;;;6.28;3.70;;;;;;;;;;5030726;28;20025;-85
2021/06/10 05:28:17;;;;;;;5.80;3.78;;;;;;;;;;5018014;28;20026;-86
2021/06/10 05:30:43;;;;;;;4.55;3.55;;;;;;;;;;4995295;28;20061;-87
2021/06/10 05:33:09;;;;;;;4.32;3.25;;;;;;;;;;5033452;28;20060;-86
2021/06/10 05:35:36;;;;;;;4.97;3.10;;;;;;;;;;5015198;28;20045;-86
2021/06/10 05:38:02;;;;;;;3.25;2.60;;;;;;;;;;5034228;28;20025;-86
2021/06/10 05:40:28;;;;;;;2.80;2.22;;;;;;;;;;5034442;28;20075;-86
2021/06/10 05:42:54;;;;;;;3.67;2.25;;;;;;;;;;5040292;28;20026;-87
2021/06/10 05:45:20;;;;;;;3.85;2.22;;;;;;;;;;5017354;28;20021;-86
2021/06/10 05:47:46;;;;;;;4.70;1.98;;;;;;;;;;5037751;28;20040;-85
2021/06/10 05:50:12;;;;;;;2.55;1.88;;;;;;;;;;5023862;28;20033;-86
2021/06/10 05:52:39;;;;;;;3.58;1.90;;;;;;;;;;5015814;28;20033;-86
2021/06/10 05:55:06;;;;;;;3.13;2.20;;;;;;;;;;5032959;28;20065;-86
2021/06/10 05:57:31;;;;;;;5.18;2.30;;;;;;;;;;5032982;28;20028;-86
2021/06/10 05:59:57;;;;;;;5.53;2.00;;;;;;;;;;5040065;28;20057;-86
2021/06/10 06:02:23;;;;;;;3.35;1.92;;;;;;;;;;5021913;28;20022;-86
2021/06/10 06:04:49;;;;;;;6.03;2.00;;;;;;;;;;5015480;28;20037;-86
2021/06/10 06:07:15;;;;;;;2.20;2.00;;;;;;;;;;5034896;28;20049;-84
2021/06/10 06:09:41;;;;;;;6.03;2.10;;;;;;;;;;5037176;28;20022;-85
2021/06/10 06:12:10;;;;;;;5.05;1.80;;;;;;;;;;5037582;28;20037;-86
2021/06/10 06:14:37;;;;;;;3.88;2.00;;;;;;;;;;5035824;28;20022;-85
2021/06/10 06:17:05;;;;;;;4.70;2.08;;;;;;;;;;5038773;28;20025;-85
2021/06/10 06:19:32;;;;;;;3.55;1.73;;;;;;;;;;5032384;28;20048;-86
2021/06/10 06:21:58;;;;;;;2.90;1.77;;;;;;;;;;5037050;28;20033;-85
2021/06/10 06:24:24;;;;;;;6.22;2.00;;;;;;;;;;5040674;28;20022;-85
2021/06/10 06:26:50;;;;;;;4.72;2.10;;;;;;;;;;5036131;28;20487;-86
2021/06/10 06:29:16;;;;;;;3.67;1.88;;;;;;;;;;5035327;28;20052;-85
2021/06/10 06:31:42;;;;;;;4.65;1.85;;;;;;;;;;5040234;28;20091;-85
2021/06/10 06:34:08;;;;;;;3.88;1.80;;;;;;;;;;5020932;28;20021;-85
2021/06/10 06:36:34;;;;;;;3.58;1.90;;;;;;;;;;5035573;28;20029;-85
2021/06/10 06:39:00;;;;;;;3.20;1.70;;;;;;;;;;5021171;28;20025;-85
2021/06/10 06:41:26;;;;;;;3.45;1.75;;;;;;;;;;5034962;28;20036;-84
2021/06/10 06:43:52;;;;;;;3.95;1.70;;;;;;;;;;5029428;28;20026;-85
2021/06/10 06:46:18;;;;;;;2.97;1.63;;;;;;;;;;5033772;28;20071;-85
2021/06/10 06:48:44;;;;;;;3.08;1.50;;;;;;;;;;5013013;28;20382;-87
2021/06/10 06:51:10;;;;;;;2.08;1.70;;;;;;;;;;5037407;28;20407;-87
2021/06/10 06:53:37;;;;;;;4.78;1.80;;;;;;;;;;5024028;28;20355;-87
2021/06/10 06:56:04;;;;;;;4.05;1.77;;;;;;;;;;5032476;28;20025;-87
2021/06/10 06:58:30;;;;;;;3.58;1.90;;;;;;;;;;5038117;28;20045;-88
2021/06/10 07:00:57;;;;;;;4.05;1.77;;;;;;;;;;5027598;28;20032;-87
2021/06/10 07:03:23;;;;;;;2.28;1.63;;;;;;;;;;5025917;28;20029;-88
2021/06/10 07:05:49;;;;;;;1.83;1.38;;;;;;;;;;5034204;28;20057;-88
2021/06/10 07:08:15;;;;;;;2.72;1.60;;;;;;;;;;5035964;28;20030;-88
2021/06/10 07:10:42;;;;;;;3.97;1.60;;;;;;;;;;5014796;28;20474;-89
2021/06/10 07:13:08;;;;;;;4.88;1.80;;;;;;;;;;5030216;28;20036;-89
2021/06/10 07:15:34;;;;;;;2.83;1.63;;;;;;;;;;5043923;28;20029;-89
2021/06/10 07:18:00;;;;;;;2.95;1.83;;;;;;;;;;5031757;28;20141;-87
2021/06/10 07:20:26;;;;;;;1.80;1.40;;;;;;;;;;5014819;28;20029;-88
2021/06/10 07:22:52;;;;;;;2.70;1.70;;;;;;;;;;5034505;28;20121;-87
2021/06/10 07:25:19;;;;;;;3.60;1.63;;;;;;;;;;5034815;28;20026;-87
2021/06/10 07:27:45;;;;;;;2.53;1.63;;;;;;;;;;5034976;28;20087;-88
2021/06/10 07:30:11;;;;;;;3.97;1.85;;;;;;;;;;5038918;28;20056;-88
2021/06/10 07:32:37;;;;;;;3.72;1.60;;;;;;;;;;5038093;28;20029;-87
2021/06/10 07:35:04;;;;;;;3.40;1.45;;;;;;;;;;5023084;28;20030;-87
2021/06/10 07:37:30;;;;;;;2.38;1.80;;;;;;;;;;5033588;28;21356;-87
2021/06/10 07:39:56;;;;;;;4.57;1.70;;;;;;;;;;5033442;28;20033;-87
2021/06/10 07:42:22;;;;;;;4.53;1.70;;;;;;;;;;5033022;28;20037;-87
2021/06/10 07:44:48;;;;;;;2.55;1.60;;;;;;;;;;5017341;28;20475;-88
2021/06/10 07:47:14;;;;;;;2.78;1.45;;;;;;;;;;5039112;28;20036;-87
2021/06/10 07:49:41;;;;;;;3.20;1.40;;;;;;;;;;5009149;28;20026;-87
2021/06/10 07:52:07;;;;;;;4.30;1.42;;;;;;;;;;5038155;28;20041;-86
2021/06/10 07:54:33;;;;;;;1.48;1.38;;;;;;;;;;5039579;28;20036;-87
2021/06/10 07:56:59;;;;;;;2.55;1.80;;;;;;;;;;5031485;28;20079;-88
2021/06/10 07:59:26;;;;;;;2.13;1.40;;;;;;;;;;5014317;28;20029;-87
2021/06/10 08:01:55;;;;;;;3.97;1.60;;;;;;;;;;5031439;28;20030;-87
2021/06/10 08:04:21;;;;;;;4.43;1.40;;;;;;;;;;5042616;28;20040;-87
2021/06/10 08:06:47;;;;;;;2.33;1.58;;;;;;;;;;5031605;28;20034;-87
2021/06/10 08:09:13;;;;;;;2.35;1.60;;;;;;;;;;5034267;28;20091;-88
2021/06/10 08:11:41;;;;;;;1.50;1.40;;;;;;;;;;5019123;28;20033;-88
2021/06/10 08:14:07;;;;;;;3.58;1.40;;;;;;;;;;5044634;28;20482;-88
2021/06/10 08:16:33;;;;;;;3.17;1.42;;;;;;;;;;5029646;28;20072;-87
2021/06/10 08:18:59;;;;;;;2.70;1.60;;;;;;;;;;5025269;28;20061;-87
2021/06/10 08:21:26;;;;;;;2.40;1.50;;;;;;;;;;5024010;28;20025;-86
2021/06/10 08:23:52;;;;;;;2.15;1.48;;;;;;;;;;5016945;28;20034;-87
2021/06/10 08:26:18;;;;;;;3.95;1.60;;;;;;;;;;5032437;28;20026;-88
2021/06/10 08:28:44;;;;;;;2.00;1.60;;;;;;;;;;5030970;28;20105;-88
2021/06/10 08:31:10;;;;;;;1.60;1.48;;;;;;;;;;5037100;28;20132;-87
2021/06/10 08:33:37;;;;;;;2.53;1.67;;;;;;;;;;5041273;28;20041;-87
2021/06/10 08:36:06;;;;;;;2.53;1.60;;;;;;;;;;5035168;28;20032;-88
2021/06/10 08:38:36;;;;;;;2.03;1.50;;;;;;;;;;5003521;28;20029;-88
2021/06/10 08:41:03;;;;;;;3.53;1.90;;;;;;;;;;5013019;28;20030;-87
2021/06/10 08:43:29;;;;;;;1.85;1.30;;;;;;;;;;5031580;28;20022;-87
2021/06/10 08:46:05;;;;;;;1.60;1.40;;;;;;;;;;5017385;28;20506;-88
2021/06/10 08:48:35;;;;;;;1.35;1.25;;;;;;;;;;5042302;28;20104;-87
2021/06/10 08:51:01;;;;;;;4.43;1.63;;;;;;;;;;5023261;28;20044;-87
2021/06/10 08:53:28;;;;;;;2.37;1.57;;;;;;;;;;5039485;28;20087;-88
2021/06/10 08:55:56;;;;;;;2.05;1.60;;;;;;;;;;5035109;28;20026;-88
2021/06/10 08:58:22;;;;;;;2.83;1.60;;;;;;;;;;5040661;28;20030;-87
2021/06/10 09:00:48;;;;;;;3.10;1.60;;;;;;;;;;5042981;28;20028;-86
2021/06/10 09:03:20;;;;;;;3.15;1.75;;;;;;;;;;5037134;28;20034;-87
2021/06/10 09:05:59;;;;;;;2.33;1.58;;;;;;;;;;5009646;28;20017;-87
2021/06/10 09:08:25;;;;;;;2.75;1.75;;;;;;;;;;5032483;28;20042;-87
2021/06/10 09:11:01;;;;;;;3.28;1.65;;;;;;;;;;5041974;28;20041;-88
2021/06/10 09:13:35;;;;;;;2.60;1.55;;;;;;;;;;5030525;28;20041;-88
2021/06/10 09:16:15;;;;;;;2.90;1.90;;;;;;;;;;5038193;28;20037;-87
2021/06/10 09:18:59;;;;;;;1.88;1.77;;;;;;;;;;5042996;28;20033;-87
2021/06/10 09:21:45;;;;;;;2.22;1.50;;;;;;;;;;5034546;28;20148;-87
2021/06/10 09:24:28;;;;;;;4.38;1.75;;;;;;;;;;4999738;28;20383;-87
2021/06/10 09:26:57;;;;;;;2.70;1.63;;;;;;;;;;5033985;28;20037;-87
2021/06/10 09:29:42;;;;;;;2.30;1.60;;;;;;;;;;5016446;28;20085;-87
2021/06/10 09:32:18;;;;;;;3.03;1.83;;;;;;;;;;5018586;28;20053;-87
2021/06/10 09:34:48;;;;;;;2.95;1.48;;;;;;;;;;5019003;28;20033;-86
2021/06/10 09:37:14;;;;;;;1.90;1.58;;;;;;;;;;5009987;28;20053;-87
2021/06/10 09:39:54;;;;;;;2.97;1.67;;;;;;;;;;5033881;28;20025;-87
2021/06/10 09:42:28;;;;;;;2.35;1.50;;;;;;;;;;5018062;28;20072;-86
2021/06/10 09:44:58;;;;;;;4.00;1.70;;;;;;;;;;5042703;28;20029;-87
2021/06/10 09:47:29;;;;;;;3.50;1.70;;;;;;;;;;5045027;28;20029;-88
2021/06/10 09:49:55;;;;;;;2.35;1.80;;;;;;;;;;5033161;28;20490;-88
2021/06/10 09:52:22;;;;;;;2.75;1.75;;;;;;;;;;5012556;28;20095;-89
2021/06/10 09:54:55;;;;;;;2.30;1.80;;;;;;;;;;5012920;28;20033;-89
2021/06/10 09:57:21;;;;;;;1.70;1.55;;;;;;;;;;5035532;28;20031;-89
2021/06/10 09:59:54;;;;;;;1.92;1.60;;;;;;;;;;5026590;28;20055;-89
2021/06/10 10:02:24;;;;;;;3.67;1.55;;;;;;;;;;5031095;28;20028;-88
2021/06/10 10:05:01;;;;;;;2.00;1.50;;;;;;;;;;5026824;28;20048;-88
2021/06/10 10:07:28;;;;;;;1.60;1.35;;;;;;;;;;5029876;28;20473;-89
2021/06/10 10:09:54;;;;;;;;;;;;;;;;;;5042618;28;20025;-89
2021/06/10 10:12:20;;;;;;;;;;;;;;;;;;5023207;28;20452;-89
2021/06/10 10:14:46;;;;;;;;;;;;;;;;;;5013274;28;19912;-88
2021/06/10 10:17:12;;;;;;;;;;;;;;;;;;5036341;28;20660;-88
2021/06/10 10:19:38;;;;;;;;;;;;;;;;;;5027615;28;20025;-88
2021/06/10 10:22:04;;;;;;;;;;;;;;;;;;5034390;28;19909;-88
2021/06/10 10:24:30;;;;;;;;;;;;;;;;;;5020896;28;19913;-88
2021/06/10 10:26:55;;;;;;;;;;;;;;;;;;5007896;28;19912;-89
2021/06/10 10:29:21;;;;;;;;;;;;;;;;;;5038767;28;19935;-89
2021/06/10 10:31:49;;;;;;;;;;;;;;;;;;5012621;28;19971;-89
2021/06/10 10:34:15;;;;;;;;;;;;;;;;;;5020711;28;19909;-89
2021/06/10 10:36:41;;;;;;;;;;;;;;;;;;5024370;28;19913;-88
2021/06/10 10:39:07;;;;;;;;;;;;;;;;;;5023023;28;19928;-89
2021/06/10 10:41:33;;;;;;;;;;;;;;;;;;5029869;28;19905;-89
2021/06/10 10:43:59;;;;;;;;;;;;;;;;;;5020865;28;19913;-89
2021/06/10 10:46:24;;;;;;;;;;;;;;;;;;5033168;28;19940;-88
2021/06/10 10:48:51;;;;;;;;;;;;;;;;;;5009499;28;19952;-88
2021/06/10 10:51:17;;;;;;;;;;;;;;;;;;5045401;28;19909;-88
2021/06/10 10:53:43;;;;;;;;;;;;;;;;;;5019976;28;19920;-89
2021/06/10 10:56:09;;;;;;;;;;;;;;;;;;5008136;28;19913;-89
2021/06/10 10:58:35;;;;;;;;;;;;;;;;;;5018385;28;19909;-88
2021/06/10 11:01:01;;;;;;;;;;;;;;;;;;5016405;28;19935;-89
2021/06/10 11:03:27;;;;;;;;;;;;;;;;;;5040934;28;20352;-89
2021/06/10 11:05:53;;;;;;;;;;;;;;;;;;5014491;28;19913;-89
2021/06/10 11:08:22;;;;;;;;;;;;;;;;;;5031012;28;20088;-89
2021/06/10 11:10:52;;;;;;;;;;;;;;;;;;5017380;28;19908;-90
2021/06/10 11:13:18;;;;;;;;;;;;;;;;;;5038531;28;19960;-89
2021/06/10 11:15:44;;;;;;;;;;;;;;;;;;5039213;28;19909;-88
2021/06/10 11:18:10;;;;;;;;;;;;;;;;;;5041091;28;19932;-88
2021/06/10 11:20:35;;;;;;;;;;;;;;;;;;5040947;28;19905;-88
2021/06/10 11:23:01;;;;;;;;;;;;;;;;;;5009594;28;19909;-88
2021/06/10 11:25:29;;;;;;;;;;;;;;;;;;5016562;28;19944;-88
2021/06/10 11:27:55;;;;;;;;;;;;;;;;;;5026120;28;19916;-88
2021/06/10 11:30:22;;;;;;;;;;;;;;;;;;5033115;28;19925;-87
2021/06/10 11:32:47;;;;;;;;;;;;;;;;;;5032780;28;19912;-89
2021/06/10 11:35:13;;;;;;;;;;;;;;;;;;5036010;28;19916;-85
2021/06/10 11:37:39;;;;;;;;;;;;;;;;;;5036478;28;20432;-85
2021/06/10 11:40:05;;;;;;;;;;;;;;;;;;5012968;28;19909;-85
2021/06/10 11:42:31;;;;;;;;;;;;;;;;;;5032704;28;20350;-86
2021/06/10 11:44:57;;;;;;;;;;;;;;;;;;5040198;28;19905;-87
2021/06/10 11:47:23;;;;;;;;;;;;;;;;;;5013601;28;19905;-86
2021/06/10 11:49:49;;;;;;;;;;;;;;;;;;5030097;28;19909;-86
2021/06/10 11:52:15;;;;;;;;;;;;;;;;;;5023289;28;19975;-87
2021/06/10 11:54:40;;;;;;;;;;;;;;;;;;5017724;28;20213;-86
2021/06/10 11:57:06;;;;;;;;;;;;;;;;;;5034038;28;20508;-85
2021/06/10 11:59:37;;;;;;;;;;;;;;;;;;5036435;28;19905;-85
2021/06/10 12:02:03;;;;;;;;;;;;;;;;;;5017896;28;20365;-86
2021/06/10 12:04:29;;;;;;;;;;;;;;;;;;5033896;28;19908;-85
2021/06/10 12:06:55;;;;;;;;;;;;;;;;;;5039444;28;19986;-85
2021/06/10 12:09:21;;;;;;;;;;;;;;;;;;5046535;28;19904;-86
2021/06/10 12:11:47;;;;;;;;;;;;;;;;;;5018795;28;19905;-85
2021/06/10 12:14:13;;;;;;;;;;;;;;;;;;5038583;28;19916;-86
2021/06/10 12:16:39;;;;;;;;;;;;;;;;;;5038467;28;19915;-86
2021/06/10 12:19:05;;;;;;;;;;;;;;;;;;5034517;28;19909;-86
2021/06/10 12:21:30;;;;;;;;;;;;;;;;;;5020251;28;20277;-86
2021/06/10 12:23:59;;;;;;;;;;;;;;;;;;5036177;28;19915;-86
2021/06/10 12:26:25;;;;;;;;;;;;;;;;;;5002399;28;19916;-86
2021/06/10 12:28:51;;;;;;;;;;;;;;;;;;5034582;28;19932;-86
2021/06/10 12:31:17;;;;;;;;;;;;;;;;;;5018459;28;19917;-85
2021/06/10 12:33:43;;;;;;;;;;;;;;;;;;5033129;28;19963;-85
2021/06/10 12:36:09;;;;;;;;;;;;;;;;;;5022186;28;19917;-86
2021/06/10 12:38:36;;;;;;;;;;;;;;;;;;5045621;28;19912;-86
2021/06/10 12:41:02;;;;;;;;;;;;;;;;;;5010754;28;19990;-86
2021/06/10 12:43:28;;;;;;;;;;;;;;;;;;5041781;28;19909;-86
2021/06/10 12:45:53;;;;;;;;;;;;;;;;;;5035325;28;19996;-86
2021/06/10 12:48:19;;;;;;;;;;;;;;;;;;5016338;28;19924;-85
2021/06/10 12:50:45;;;;;;;;;;;;;;;;;;5034264;28;19905;-86
2021/06/10 12:53:16;;;;;;;;;;;;;;;;;;5034674;28;20003;-86
2021/06/10 12:55:42;;;;;;;;;;;;;;;;;;5036681;28;19935;-86
2021/06/10 12:58:08;;;;;;;;;;;;;;;;;;5036744;28;19909;-86
2021/06/10 13:00:35;;;;;;;;;;;;;;;;;;5034039;28;20999;-86
2021/06/10 13:03:01;;;;;;;;;;;;;;;;;;5044781;28;19940;-86
2021/06/10 13:05:26;;;;;;;;;;;;;;;;;;5043340;28;19928;-86
2021/06/10 13:07:54;;;;;;;;;;;;;;;;;;5025525;28;19906;-87
2021/06/10 13:10:20;;;;;;;;;;;;;;;;;;5027542;28;19955;-91
2021/06/10 13:12:46;;;;;;;;;;;;;;;;;;5017407;28;19917;-89
2021/06/10 13:15:13;;;;;;;;;;;;;;;;;;5018916;28;20318;-88
2021/06/10 13:17:38;;;;;;;;;;;;;;;;;;5035632;28;19916;-88
2021/06/10 13:20:04;;;;;;;;;;;;;;;;;;5041551;28;19905;-88
2021/06/10 13:22:30;;;;;;;;;;;;;;;;;;5022013;28;19909;-89
2021/06/10 13:24:56;;;;;;;;;;;;;;;;;;5036116;28;19910;-89
2021/06/10 13:27:22;;;;;;;;;;;;;;;;;;5002764;28;19910;-88
2021/06/10 13:29:48;;;;;;;;;;;;;;;;;;5034125;28;19999;-88
2021/06/10 13:32:14;;;;;;;;;;;;;;;;;;5012632;28;20304;-88
2021/06/10 13:34:47;;;;;;;;;;;;;;;;;;5016565;28;19913;-91
2021/06/10 13:37:13;;;;;;;;;;;;;;;;;;5016603;28;20480;-89
2021/06/10 13:39:38;;;;;;;;;;;;;;;;;;5016614;28;19905;-88
2021/06/10 13:42:04;;;;;;;;;;;;;;;;;;5024385;28;19909;-88
2021/06/10 13:44:30;;;;;;;;;;;;;;;;;;5025247;28;20298;-89
2021/06/10 13:46:59;;;;;;;;;;;;;;;;;;5022478;28;19988;-89
2021/06/10 13:49:25;;;;;;;;;;;;;;;;;;5015998;28;19963;-90
2021/06/10 13:51:51;;;;;;;;;;;;;;;;;;5012273;28;19913;-88
2021/06/10 13:54:17;;;;;;;;;;;;;;;;;;5013124;28;20478;-89
2021/06/10 13:56:43;;;;;;;;;;;;;;;;;;5035082;28;19905;-88
2021/06/10 13:59:09;;;;;;;;;;;;;;;;;;5036224;28;19931;-88
2021/06/10 14:01:35;;;;;;;;;;;;;;;;;;5016882;28;19966;-88
2021/06/10 14:04:00;;;;;;;;;;;;;;;;;;5040560;28;19932;-87
2021/06/10 14:06:26;;;;;;;;;;;;;;;;;;5027573;28;19967;-88
2021/06/10 14:08:52;;;;;;;;;;;;;;;;;;5044990;28;19932;-85
2021/06/10 14:11:18;;;;;;;;;;;;;;;;;;5042232;28;19905;-88
2021/06/10 14:13:44;;;;;;;;;;;;;;;;;;5049046;28;19917;-88
2021/06/10 14:16:16;;;;;;;;;;;;;;;;;;5022162;28;19920;-87
2021/06/10 14:18:42;;;;;;;;;;;;;;;;;;5040983;28;19932;-88
2021/06/10 14:21:08;;;;;;;;;;;;;;;;;;5030096;28;20401;-88
2021/06/10 14:23:34;;;;;;;;;;;;;;;;;;5011598;28;19909;-89
2021/06/10 14:26:00;;;;;;;;;;;;;;;;;;5036940;28;20357;-90
2021/06/10 14:28:25;;;;;;;;;;;;;;;;;;5016375;28;19912;-89
2021/06/10 14:31:02;;;;;;;;;;;;;;;;;;5036803;28;20134;-89
2021/06/10 14:33:28;;;;;;;;;;;;;;;;;;5040585;28;20366;-89
2021/06/10 14:35:54;;;;;;;;;;;;;;;;;;5033053;28;19951;-89
2021/06/10 14:38:20;;;;;;;;;;;;;;;;;;5023210;28;19905;-88
2021/06/10 14:40:46;;;;;;;;;;;;;;;;;;5029934;28;19909;-89
2021/06/10 14:43:12;;;;;;;;;;;;;;;;;;5013381;28;20286;-89
2021/06/10 14:45:38;;;;;;;;;;;;;;;;;;5020585;28;20047;-89
2021/06/10 14:48:05;;;;;;;;;;;;;;;;;;5021225;28;19916;-88
2021/06/10 14:50:31;;;;;;;;;;;;;;;;;;5016120;28;19905;-89
2021/06/10 14:52:57;;;;;;;;;;;;;;;;;;5018929;28;20401;-88
2021/06/10 14:55:26;;;;;;;;;;;;;;;;;;5031042;28;19916;-89
2021/06/10 14:57:54;;;;;;;;;;;;;;;;;;5011075;28;19909;-88
2021/06/10 15:00:20;;;;;;;;;;;;;;;;;;5024960;28;19917;-88
2021/06/10 15:02:45;;;;;;;;;;;;;;;;;;5022173;28;20270;-88
2021/06/10 15:05:11;;;;;;;;;;;;;;;;;;5011882;28;19909;-89
2021/06/10 15:07:37;;;;;;;;;;;;;;;;;;5029666;28;19913;-89
2021/06/10 15:10:03;;;;;;;;;;;;;;;;;;5013075;28;20039;-87
2021/06/10 15:12:29;;;;;;;;;;;;;;;;;;5030071;28;19975;-87
2021/06/10 15:14:55;;;;;;;;;;;;;;;;;;5033725;28;20362;-86
2021/06/10 15:17:21;;;;;;;;;;;;;;;;;;5028147;28;20467;-86
2021/06/10 15:19:47;;;;;;;;;;;;;;;;;;5007926;28;19992;-86